VRGK1: Verdigris River on 180th Road W of Virgil KS

Data processed at Fri May 24 2019 23:50


All information presented herein is the property of the government of the United States of America and may be revised or deleted at any time without prior notice.
Dissemination of this information without the expressed written consent of the Public Affairs Office, Tulsa District U.S. Army Corps of Engineers is strictly prohibited.
These data are gathered electronically and, as presented, have not undergone any form of quality control. These data are not guaranteed to be valid or correct.
Go to home page.
Go to station list.
Go to home page.

Downstream station:


Previous Day
Next Day
Current Day
    
SHEF ID:       VRGK1     VERDIGRIS R NR VIRGIL, KS
STATION TYPE:  

               PRECIP     STAGE  RIV-FLOW  BAT-LOAD
                   in        ft       cfs      volt
              Ccp-Rev   Ccp-Rev   Ccp-Rev   Ccp-Rev
(US/Central)
05/24 00:00      0.00     15.96      3226     12.65
05/24 01:00      0.00     15.93      3211     12.65
05/24 02:00      0.00     15.90      3197     12.65
05/24 03:00      0.00     15.87      3182     12.65
05/24 04:00      0.00     15.85      3172     12.65
05/24 05:00      0.00     15.83      3162     12.65
05/24 06:00      0.00     15.80      3148     12.65
05/24 07:00      0.00     15.79      3143     12.57
05/24 08:00      0.10     15.78      3138     12.57
05/24 09:00      0.00     15.76      3128     13.21
05/24 10:00      0.00     15.73      3114     13.05
05/24 11:00      0.02     15.72      3109     12.81
05/24 12:00      0.09     15.68      3089     12.73
05/24 13:00      0.00     15.64      3070     13.37
05/24 14:00      0.00     15.61      3055     13.29
05/24 15:00      0.00     15.56      3031     13.68
05/24 16:00      0.00     15.51      3007     13.29
05/24 17:00      0.00     15.46      2983     13.21
05/24 18:00      0.01     15.43      2968     12.81
05/24 19:00      0.22     18.74      4665     12.73
05/24 20:00      2.73     25.11      8413     12.65
05/24 21:00      1.29     28.35     10521     12.65
05/24 22:00      0.19     30.51     12299     12.65
05/24 23:00      0.14     31.51     14821     12.65